Terminal Aerodrome Forecast
Issued by NWS Denver/Boulder, CO

Home | Current Version | Previous Version | Text Only | Print | Product List | Glossary On
Versions: 1 2 3 4 5 6 7 8 9 10 11 12 13 14 15 16 17 18 19 20 21 22 23 24 25 26 27 28 29 30 31 32 33 34 35 36 37 38 39 40 41 42 43 44 45 46 47 48 49 50
000
FTUS45 KBOU 241003 AAB
TAFDEN
TAF AMD
KDEN 241003Z 2410/2512 VRB05KT P6SM SCT030 SCT220
      TEMPO 2410/2412 BKN040
     FM241200 16008KT P6SM BKN015
     FM241500 15010KT P6SM SCT020 BKN220
     FM241800 14014G22KT P6SM SCT060 SCT220
     FM242000 14014G22KT P6SM VCTS SCT080CB BKN120 PROB30 2420/2424
      VRB18G30KT -TSRA BKN080CB
     FM250000 01012KT P6SM SCT080 BKN120
     FM250200 06008KT P6SM FEW080 SCT120
     FM250600 23009KT P6SM FEW220=

USA.gov is the U.S. government's official web portal to all federal, state and local government web resources and services.